Time;durP1;ratioP1;P1;durP2;ratioP2;P2;SDS_P1;SDS_P2;PMS_P1;PMS_P2;Temp;Humidity;BMP_temperature;BMP_pressure;BME280_temperature;BME280_humidity;BME280_pressure;Samples;Min_cycle;Max_cycle;Signal;HPM_P1;HPM_P2
2024/01/19 00:01:12;;;;;;;3.20;0.80;;;1.10;99.90;;;;;;5091557;28;20111;-71
2024/01/19 00:03:38;;;;;;;1.42;1.15;;;0.80;99.90;;;;;;5073546;28;20543;-70
2024/01/19 00:06:04;;;;;;;4.47;1.25;;;1.00;99.90;;;;;;5091589;28;20044;-71
2024/01/19 00:08:30;;;;;;;4.57;0.60;;;0.90;99.90;;;;;;5091456;28;20115;-71
2024/01/19 00:10:55;;;;;;;4.03;1.10;;;0.80;99.90;;;;;;5090175;28;20463;-70
2024/01/19 00:13:21;;;;;;;6.53;0.65;;;0.80;99.90;;;;;;5091550;28;20036;-71
2024/01/19 00:15:46;;;;;;;2.55;0.85;;;1.00;99.90;;;;;;5090450;28;20403;-70
2024/01/19 00:18:12;;;;;;;4.13;0.73;;;1.00;99.90;;;;;;5091118;28;20039;-70
2024/01/19 00:20:38;;;;;;;2.25;0.75;;;1.00;99.90;;;;;;5090127;28;20127;-71
2024/01/19 00:23:04;;;;;;;3.10;0.60;;;0.80;99.90;;;;;;5090159;28;20047;-71
2024/01/19 00:25:30;;;;;;;4.53;0.63;;;0.70;99.90;;;;;;5091556;28;20044;-71
2024/01/19 00:27:55;;;;;;;2.95;1.35;;;0.90;99.90;;;;;;5091249;28;20040;-70
2024/01/19 00:30:21;;;;;;;3.13;0.50;;;1.00;99.90;;;;;;5091210;28;20069;-70
2024/01/19 00:32:46;;;;;;;4.07;0.40;;;1.20;99.90;;;;;;5091109;28;20043;-70
2024/01/19 00:35:12;;;;;;;5.72;0.70;;;1.00;99.90;;;;;;5091418;28;20039;-71
2024/01/19 00:37:37;;;;;;;3.25;0.50;;;1.10;99.90;;;;;;5092117;28;20440;-71
2024/01/19 00:40:11;;;;;;;2.33;0.75;;;1.30;99.90;;;;;;5093742;28;20499;-70
2024/01/19 00:42:39;;;;;;;2.00;1.70;;;1.40;99.90;;;;;;5095176;28;20040;-71
2024/01/19 00:45:06;;;;;;;4.28;1.85;;;1.40;99.90;;;;;;5094971;28;20093;-70
2024/01/19 00:47:34;;;;;;;1.92;0.57;;;1.50;99.90;;;;;;5093788;28;20093;-70
2024/01/19 00:49:59;;;;;;;3.90;0.82;;;1.20;99.90;;;;;;5094959;28;20032;-71
2024/01/19 00:52:25;;;;;;;4.38;0.70;;;1.40;99.90;;;;;;5093528;28;20561;-71
2024/01/19 00:54:50;;;;;;;1.85;0.45;;;1.20;99.90;;;;;;5094908;28;20063;-71
2024/01/19 00:57:16;;;;;;;3.78;0.98;;;1.50;99.90;;;;;;5093129;28;20040;-71
2024/01/19 00:59:42;;;;;;;2.08;0.52;;;1.40;99.90;;;;;;5093326;28;20043;-71
2024/01/19 01:02:07;;;;;;;1.23;0.85;;;1.30;99.90;;;;;;5094656;28;20525;-71
2024/01/19 01:04:33;;;;;;;3.25;0.50;;;1.40;99.90;;;;;;5094800;28;20086;-71
2024/01/19 01:06:59;;;;;;;1.27;0.50;;;1.30;99.90;;;;;;5093451;28;20786;-71
2024/01/19 01:09:25;;;;;;;2.60;0.63;;;1.20;99.90;;;;;;5094438;28;20044;-71
2024/01/19 01:11:50;;;;;;;0.98;0.43;;;1.20;99.90;;;;;;5094467;28;20407;-70
2024/01/19 01:14:16;;;;;;;1.88;0.68;;;1.40;99.90;;;;;;5094459;28;20067;-71
2024/01/19 01:16:42;;;;;;;2.97;0.70;;;1.50;99.90;;;;;;5094199;28;20443;-71
2024/01/19 01:19:08;;;;;;;2.80;1.33;;;1.40;99.90;;;;;;5094269;28;20040;-71
2024/01/19 01:21:33;;;;;;;1.23;0.55;;;1.40;99.90;;;;;;5094524;28;20054;-71
2024/01/19 01:23:59;;;;;;;1.92;0.40;;;1.10;99.90;;;;;;5094393;28;20048;-71
2024/01/19 01:26:25;;;;;;;1.80;0.80;;;1.10;99.90;;;;;;5094278;28;20043;-71
2024/01/19 01:28:51;;;;;;;0.80;0.50;;;1.10;99.90;;;;;;5093917;28;20475;-70
2024/01/19 01:31:17;;;;;;;3.17;0.73;;;1.30;99.90;;;;;;5094104;28;20044;-70
2024/01/19 01:33:42;;;;;;;2.45;0.60;;;1.00;99.90;;;;;;5094373;28;20111;-70
2024/01/19 01:36:08;;;;;;;2.38;0.63;;;1.20;99.90;;;;;;5094075;28;20469;-71
2024/01/19 01:38:33;;;;;;;0.88;0.40;;;0.90;99.90;;;;;;5093842;28;20040;-70
2024/01/19 01:40:59;;;;;;;1.60;0.50;;;0.90;99.90;;;;;;5094008;28;20032;-70
2024/01/19 01:43:25;;;;;;;2.17;0.60;;;0.80;99.90;;;;;;5093923;28;20032;-70
2024/01/19 01:45:51;;;;;;;1.08;0.60;;;0.70;99.90;;;;;;5093919;28;20120;-70
2024/01/19 01:48:23;;;;;;;4.63;0.77;;;0.70;99.90;;;;;;5092228;28;20036;-71
2024/01/19 01:50:49;;;;;;;2.58;0.82;;;0.80;99.90;;;;;;5093808;28;20036;-71
2024/01/19 01:53:18;;;;;;;2.35;0.60;;;0.50;99.90;;;;;;5092421;28;20093;-71
2024/01/19 01:55:44;;;;;;;5.40;1.02;;;0.90;99.90;;;;;;5092622;28;20040;-70
2024/01/19 01:58:12;;;;;;;1.08;0.65;;;0.80;99.90;;;;;;5075374;28;20063;-71
2024/01/19 02:00:38;;;;;;;7.05;1.10;;;0.50;99.90;;;;;;5092292;28;20040;-70
2024/01/19 02:03:05;;;;;;;2.58;0.82;;;0.80;99.90;;;;;;5075412;28;20044;-71
2024/01/19 02:05:32;;;;;;;1.80;0.65;;;0.80;99.90;;;;;;5092135;28;20040;-71
2024/01/19 02:07:58;;;;;;;4.22;0.70;;;0.70;99.90;;;;;;5091944;28;20446;-71
2024/01/19 02:10:24;;;;;;;2.90;0.73;;;0.50;99.90;;;;;;5093082;28;20040;-70
2024/01/19 02:12:50;;;;;;;3.42;1.58;;;0.50;99.90;;;;;;5091941;28;20529;-71
2024/01/19 02:15:24;;;;;;;2.88;0.80;;;0.60;99.90;;;;;;5093467;28;20038;-70
2024/01/19 02:17:51;;;;;;;2.53;0.80;;;0.60;99.90;;;;;;5092091;28;20032;-71
2024/01/19 02:20:17;;;;;;;2.50;0.73;;;0.70;99.90;;;;;;5093192;28;20107;-70
2024/01/19 02:22:44;;;;;;;4.47;0.73;;;0.70;99.90;;;;;;5091938;28;20491;-71
2024/01/19 02:25:13;;;;;;;4.43;1.05;;;0.60;99.90;;;;;;5093058;28;20043;-71
2024/01/19 02:27:39;;;;;;;0.90;0.68;;;0.60;99.90;;;;;;5093118;28;20040;-71
2024/01/19 02:30:11;;;;;;;4.53;1.35;;;0.70;99.90;;;;;;5093037;28;20047;-71
2024/01/19 02:32:37;;;;;;;3.40;0.80;;;0.70;99.90;;;;;;5093056;28;20064;-70
2024/01/19 02:35:04;;;;;;;3.72;0.63;;;0.70;99.90;;;;;;5092917;28;20039;-70
2024/01/19 02:37:30;;;;;;;2.00;0.70;;;0.60;99.90;;;;;;5091488;28;20162;-71
2024/01/19 02:39:56;;;;;;;2.90;1.25;;;0.60;99.90;;;;;;5092551;28;20119;-71
2024/01/19 02:42:21;;;;;;;3.35;1.75;;;0.90;99.90;;;;;;5091574;28;20036;-71
2024/01/19 02:44:47;;;;;;;3.78;0.98;;;0.90;99.90;;;;;;5092810;28;20040;-71
2024/01/19 02:47:12;;;;;;;3.80;1.20;;;0.80;99.90;;;;;;5092583;28;20040;-71
2024/01/19 02:49:38;;;;;;;4.05;0.90;;;0.80;99.90;;;;;;5092470;28;20036;-71
2024/01/19 02:52:05;;;;;;;4.40;1.05;;;0.80;99.90;;;;;;5091251;28;20055;-71
2024/01/19 02:54:30;;;;;;;4.80;0.90;;;0.80;99.90;;;;;;5091139;28;20044;-71
2024/01/19 02:56:56;;;;;;;5.95;0.98;;;0.90;99.90;;;;;;5092190;28;20055;-71
2024/01/19 02:59:22;;;;;;;3.38;1.42;;;0.50;99.90;;;;;;5091822;28;20040;-70
2024/01/19 03:01:47;;;;;;;5.45;1.90;;;0.80;99.90;;;;;;5092565;28;20063;-71
2024/01/19 03:04:13;;;;;;;2.35;0.90;;;0.40;99.90;;;;;;5091075;28;20063;-71
2024/01/19 03:06:39;;;;;;;4.55;0.82;;;0.40;99.90;;;;;;5092200;28;20055;-71
2024/01/19 03:09:04;;;;;;;2.88;0.90;;;0.30;99.90;;;;;;5091998;28;20123;-70
2024/01/19 03:11:30;;;;;;;3.22;1.08;;;0.30;99.90;;;;;;5092326;28;20043;-71
2024/01/19 03:13:55;;;;;;;2.22;0.70;;;0.20;99.90;;;;;;5092190;28;20076;-71
2024/01/19 03:16:21;;;;;;;4.78;0.93;;;0.20;99.90;;;;;;5092105;28;20028;-70
2024/01/19 03:18:47;;;;;;;3.00;0.85;;;0.50;99.90;;;;;;5091929;28;20376;-71
2024/01/19 03:21:13;;;;;;;3.35;1.42;;;0.50;99.90;;;;;;5092037;28;20067;-71
2024/01/19 03:23:39;;;;;;;4.43;0.73;;;0.00;99.90;;;;;;5090543;28;20032;-71
2024/01/19 03:26:05;;;;;;;4.60;0.93;;;0.30;99.90;;;;;;5092046;28;20036;-70
2024/01/19 03:28:31;;;;;;;1.83;1.05;;;0.30;99.90;;;;;;5091842;28;20040;-70
2024/01/19 03:30:57;;;;;;;3.78;0.70;;;0.10;99.90;;;;;;5091938;28;20403;-70
2024/01/19 03:33:23;;;;;;;3.83;0.77;;;0.30;99.90;;;;;;5091926;28;20040;-70
2024/01/19 03:35:48;;;;;;;1.90;0.85;;;-0.10;99.90;;;;;;5090534;28;20044;-70
2024/01/19 03:38:14;;;;;;;9.38;1.42;;;0.00;99.90;;;;;;5091464;28;20115;-71
2024/01/19 03:40:39;;;;;;;5.97;1.67;;;0.00;99.90;;;;;;5091922;28;20040;-71
2024/01/19 03:43:05;;;;;;;2.55;1.02;;;0.20;99.90;;;;;;5091714;28;20067;-71
2024/01/19 03:45:31;;;;;;;3.20;0.90;;;0.00;99.90;;;;;;5091714;28;20040;-71
2024/01/19 03:47:56;;;;;;;3.17;0.80;;;-0.10;99.90;;;;;;5091598;28;20044;-71
2024/01/19 03:50:25;;;;;;;5.57;0.82;;;0.10;99.90;;;;;;5091540;28;20072;-71
2024/01/19 03:52:50;;;;;;;1.67;0.73;;;-0.10;99.90;;;;;;5091522;28;20743;-71
2024/01/19 03:55:16;;;;;;;4.35;1.20;;;0.30;99.90;;;;;;5091577;28;20044;-71
2024/01/19 03:57:42;;;;;;;5.03;0.95;;;0.00;99.90;;;;;;5091432;28;20039;-71
2024/01/19 04:00:08;;;;;;;2.45;1.17;;;0.10;99.90;;;;;;5091548;28;20054;-71
2024/01/19 04:02:35;;;;;;;5.10;1.25;;;0.60;99.90;;;;;;5091332;28;20048;-71
2024/01/19 04:05:01;;;;;;;4.80;1.55;;;0.40;99.90;;;;;;5091593;28;20407;-70
2024/01/19 04:07:26;;;;;;;2.70;0.98;;;0.60;99.90;;;;;;5090011;28;20140;-71
2024/01/19 04:09:52;;;;;;;8.90;1.30;;;0.30;99.90;;;;;;5091241;28;20044;-71
2024/01/19 04:12:18;;;;;;;3.47;0.93;;;0.50;99.90;;;;;;5095154;28;20146;-71
2024/01/19 04:14:44;;;;;;;10.32;2.40;;;0.40;99.90;;;;;;5077369;28;20064;-70
2024/01/19 04:17:11;;;;;;;7.22;1.20;;;0.50;99.90;;;;;;5095419;28;20040;-71
2024/01/19 04:19:38;;;;;;;5.53;1.00;;;0.70;99.90;;;;;;5095416;28;20032;-71
2024/01/19 04:22:04;;;;;;;7.85;1.33;;;0.80;99.90;;;;;;5095382;28;20039;-70
2024/01/19 04:24:30;;;;;;;3.35;1.08;;;0.40;99.90;;;;;;5094178;28;20105;-70
2024/01/19 04:26:55;;;;;;;1.98;0.88;;;0.70;99.90;;;;;;5095373;28;20495;-71
2024/01/19 04:29:21;;;;;;;8.70;1.00;;;0.50;99.90;;;;;;5095188;28;20036;-71
2024/01/19 04:31:46;;;;;;;2.25;1.50;;;0.70;99.90;;;;;;5106154;28;20122;-71
2024/01/19 04:34:12;;;;;;;8.88;1.55;;;0.40;99.90;;;;;;5115625;28;20517;-71
2024/01/19 04:36:38;;;;;;;4.05;0.80;;;0.40;99.90;;;;;;5115426;28;20415;-71
2024/01/19 04:39:04;;;;;;;7.05;1.27;;;0.40;99.90;;;;;;5115162;28;20051;-71
2024/01/19 04:41:30;;;;;;;10.75;2.13;;;0.60;99.90;;;;;;5097181;28;20046;-71
2024/01/19 04:43:55;;;;;;;2.28;1.10;;;0.60;99.90;;;;;;5115483;28;20039;-71
2024/01/19 04:46:21;;;;;;;3.95;0.80;;;0.30;99.90;;;;;;5115401;28;20035;-71
2024/01/19 04:48:46;;;;;;;6.57;0.75;;;0.60;99.90;;;;;;5096800;28;20027;-71
2024/01/19 04:51:12;;;;;;;3.15;0.90;;;0.60;99.90;;;;;;5115232;28;20128;-71
2024/01/19 04:53:39;;;;;;;1.90;0.80;;;0.20;99.90;;;;;;5115414;28;20028;-71
2024/01/19 04:56:06;;;;;;;3.47;1.13;;;0.30;99.90;;;;;;5115106;28;20038;-71
2024/01/19 04:58:38;;;;;;;1.52;0.80;;;0.10;99.90;;;;;;5115078;28;20061;-71
2024/01/19 05:01:04;;;;;;;5.45;1.95;;;0.10;99.90;;;;;;5097194;28;20512;-70
2024/01/19 05:03:30;;;;;;;1.88;1.00;;;0.00;99.90;;;;;;5115085;28;20038;-71
2024/01/19 05:05:56;;;;;;;4.25;1.65;;;0.00;99.90;;;;;;5115118;28;20046;-70
2024/01/19 05:08:21;;;;;;;2.35;1.30;;;0.00;99.90;;;;;;5114894;28;20036;-71
2024/01/19 05:10:47;;;;;;;8.18;4.32;;;0.10;99.90;;;;;;5097022;28;20047;-71
2024/01/19 05:13:12;;;;;;;2.65;1.42;;;0.00;99.90;;;;;;5096503;28;20051;-70
2024/01/19 05:15:38;;;;;;;6.18;1.45;;;0.20;99.90;;;;;;5114837;28;20086;-70
2024/01/19 05:18:04;;;;;;;2.25;1.10;;;0.20;99.90;;;;;;5114641;28;20503;-70
2024/01/19 05:20:30;;;;;;;2.50;0.60;;;0.10;99.90;;;;;;5114772;28;20035;-71
2024/01/19 05:22:55;;;;;;;3.00;1.05;;;-0.20;99.90;;;;;;5113972;28;20047;-71
2024/01/19 05:25:21;;;;;;;2.78;0.80;;;-0.20;99.90;;;;;;5114688;28;20031;-70
2024/01/19 05:27:51;;;;;;;5.43;1.08;;;0.10;99.90;;;;;;5114512;28;20443;-71
2024/01/19 05:30:16;;;;;;;3.70;1.92;;;0.10;99.90;;;;;;5114376;28;20035;-71
2024/01/19 05:32:42;;;;;;;6.70;1.50;;;-0.20;99.90;;;;;;5114414;28;20064;-70
2024/01/19 05:35:08;;;;;;;1.80;0.95;;;-0.20;99.90;;;;;;5096454;28;20046;-71
2024/01/19 05:37:34;;;;;;;8.18;1.33;;;-0.20;99.90;;;;;;5114441;28;20047;-71
2024/01/19 05:40:00;;;;;;;2.97;1.20;;;0.20;99.90;;;;;;5095960;28;20039;-70
2024/01/19 05:42:25;;;;;;;3.15;1.35;;;-0.20;99.90;;;;;;5114483;28;20050;-70
2024/01/19 05:44:51;;;;;;;5.93;1.10;;;-0.10;99.90;;;;;;5096015;28;20046;-71
2024/01/19 05:47:16;;;;;;;3.55;1.17;;;0.40;99.90;;;;;;5113962;28;20036;-70
2024/01/19 05:49:42;;;;;;;7.35;0.93;;;0.30;99.90;;;;;;5095761;28;20035;-71
2024/01/19 05:52:08;;;;;;;4.40;1.60;;;0.40;99.90;;;;;;5114351;28;20136;-71
2024/01/19 05:54:36;;;;;;;4.25;1.35;;;0.60;99.90;;;;;;5095896;28;20043;-71
2024/01/19 05:57:02;;;;;;;6.85;1.00;;;0.10;99.90;;;;;;5095644;28;20040;-71
2024/01/19 05:59:28;;;;;;;4.40;1.45;;;0.40;99.90;;;;;;5113956;28;20042;-70
2024/01/19 06:01:55;;;;;;;3.17;0.90;;;0.50;99.90;;;;;;5113885;28;20122;-70
2024/01/19 06:04:21;;;;;;;4.65;1.00;;;0.10;99.90;;;;;;5114135;28;20217;-71
2024/01/19 06:06:46;;;;;;;5.53;0.73;;;0.40;99.90;;;;;;5095430;28;20558;-71
2024/01/19 06:09:12;;;;;;;6.50;1.20;;;-0.10;99.90;;;;;;5113825;28;20123;-71
2024/01/19 06:11:38;;;;;;;2.97;1.10;;;-0.10;99.90;;;;;;5095445;28;20043;-71
2024/01/19 06:14:03;;;;;;;7.13;1.42;;;0.10;99.90;;;;;;5113746;28;20070;-70
2024/01/19 06:16:29;;;;;;;5.25;1.08;;;0.00;99.90;;;;;;5095562;28;20067;-71
2024/01/19 06:18:55;;;;;;;4.60;0.80;;;-0.20;99.90;;;;;;5095147;28;20040;-71
2024/01/19 06:21:21;;;;;;;5.18;0.68;;;-0.30;99.90;;;;;;5095514;28;20399;-71
2024/01/19 06:23:46;;;;;;;7.10;1.88;;;-0.10;99.90;;;;;;5113666;28;20047;-70
2024/01/19 06:26:12;;;;;;;4.38;1.00;;;0.00;99.90;;;;;;5095171;28;20054;-71
2024/01/19 06:28:39;;;;;;;4.03;0.98;;;-0.30;99.90;;;;;;5113143;28;20059;-71
2024/01/19 06:31:05;;;;;;;9.60;1.38;;;-0.10;99.90;;;;;;5113299;28;20035;-70
2024/01/19 06:33:31;;;;;;;5.03;1.60;;;-0.10;99.90;;;;;;5113325;28;20376;-71
2024/01/19 06:35:57;;;;;;;2.70;1.33;;;-0.40;99.90;;;;;;5112312;28;20031;-71
2024/01/19 06:38:25;;;;;;;4.07;1.20;;;-0.10;99.90;;;;;;5113157;28;20028;-70
2024/01/19 06:40:51;;;;;;;8.45;2.30;;;-0.20;99.90;;;;;;5113099;28;20032;-71
2024/01/19 06:43:17;;;;;;;9.20;1.42;;;-0.40;99.90;;;;;;5113093;28;20054;-71
2024/01/19 06:45:42;;;;;;;4.82;0.85;;;-0.20;99.90;;;;;;5094888;28;20044;-71
2024/01/19 06:48:08;;;;;;;6.32;1.58;;;-0.50;99.90;;;;;;5112739;28;20491;-71
2024/01/19 06:50:34;;;;;;;3.05;1.23;;;-0.50;99.90;;;;;;5113050;28;20085;-71
2024/01/19 06:53:00;;;;;;;3.60;1.20;;;-0.50;99.90;;;;;;5094744;28;20456;-71
2024/01/19 06:55:29;;;;;;;3.15;1.20;;;-0.40;99.90;;;;;;5112944;28;20043;-71
2024/01/19 06:57:55;;;;;;;4.38;1.10;;;-0.30;99.90;;;;;;5112664;28;20051;-71
2024/01/19 07:00:20;;;;;;;3.92;1.08;;;-0.10;99.90;;;;;;5112718;28;20035;-71
2024/01/19 07:02:46;;;;;;;5.25;1.13;;;-0.10;99.90;;;;;;5113018;28;20069;-71
2024/01/19 07:05:12;;;;;;;9.23;2.17;;;-0.40;99.90;;;;;;5112653;28;20070;-71
2024/01/19 07:07:38;;;;;;;2.58;0.90;;;-0.10;99.90;;;;;;5112711;28;20050;-70
2024/01/19 07:10:04;;;;;;;6.53;2.05;;;-0.10;99.90;;;;;;5112558;28;20039;-70
2024/01/19 07:12:30;;;;;;;7.13;1.60;;;-0.20;99.90;;;;;;5112100;28;20036;-71
2024/01/19 07:14:55;;;;;;;3.97;1.33;;;-0.10;99.90;;;;;;5099115;28;20526;-71
2024/01/19 07:17:21;;;;;;;4.60;1.00;;;-0.50;99.90;;;;;;5111580;28;20032;-71
2024/01/19 07:19:46;;;;;;;3.55;0.93;;;-0.40;99.90;;;;;;5100239;28;20377;-70
2024/01/19 07:22:12;;;;;;;3.50;1.13;;;-0.30;99.90;;;;;;5092227;28;20047;-70
2024/01/19 07:24:38;;;;;;;2.65;1.08;;;-0.40;99.90;;;;;;5092054;28;20563;-70
2024/01/19 07:27:04;;;;;;;9.48;1.55;;;-0.60;99.90;;;;;;5108599;28;20108;-70
2024/01/19 07:29:31;;;;;;;4.00;0.98;;;-0.20;99.90;;;;;;5093961;28;20662;-71
2024/01/19 07:31:57;;;;;;;4.70;1.00;;;-0.50;99.90;;;;;;5108401;28;20431;-71
2024/01/19 07:34:23;;;;;;;4.75;2.05;;;-0.30;99.90;;;;;;5093838;28;20554;-71
2024/01/19 07:36:49;;;;;;;3.85;1.33;;;-0.20;99.90;;;;;;5112129;28;20039;-70
2024/01/19 07:39:14;;;;;;;4.88;1.10;;;-0.40;99.90;;;;;;5112035;28;20100;-71
2024/01/19 07:41:43;;;;;;;3.55;1.05;;;-0.10;99.90;;;;;;5094277;28;20035;-70
2024/01/19 07:44:08;;;;;;;7.05;1.85;;;0.00;99.90;;;;;;5093681;28;20043;-71
2024/01/19 07:46:35;;;;;;;7.60;1.42;;;-0.30;99.90;;;;;;5076513;28;20039;-70
2024/01/19 07:49:01;;;;;;;7.00;2.20;;;-0.30;99.90;;;;;;5093493;28;20552;-71
2024/01/19 07:51:27;;;;;;;8.93;3.03;;;-0.30;99.90;;;;;;5112059;28;20039;-70
2024/01/19 07:53:54;;;;;;;11.80;1.25;;;0.10;99.90;;;;;;5112074;28;20096;-71
2024/01/19 07:56:20;;;;;;;7.55;1.50;;;0.10;99.90;;;;;;5111668;28;20078;-70
2024/01/19 07:58:45;;;;;;;8.48;1.55;;;0.20;99.90;;;;;;5108499;28;20468;-71
2024/01/19 08:01:11;;;;;;;6.50;1.67;;;0.10;99.90;;;;;;5091731;28;20036;-71
2024/01/19 08:03:38;;;;;;;9.35;1.73;;;-0.10;99.90;;;;;;5091439;28;20074;-71
2024/01/19 08:06:04;;;;;;;11.70;2.30;;;-0.20;99.90;;;;;;5091301;28;20078;-70
2024/01/19 08:08:30;;;;;;;8.98;1.52;;;-0.20;99.90;;;;;;5091180;28;20507;-70
2024/01/19 08:10:55;;;;;;;12.23;2.63;;;-0.10;99.90;;;;;;5091341;28;20161;-71
2024/01/19 08:13:21;;;;;;;4.28;1.40;;;0.30;99.90;;;;;;5091177;28;20087;-70
2024/01/19 08:15:47;;;;;;;9.98;2.35;;;0.00;99.90;;;;;;5091509;28;20491;-71
2024/01/19 08:18:13;;;;;;;3.95;1.30;;;0.30;99.90;;;;;;5091172;28;20040;-70
2024/01/19 08:20:38;;;;;;;7.65;2.30;;;0.30;99.90;;;;;;5090135;28;20479;-70
2024/01/19 08:23:04;;;;;;;2.65;1.23;;;0.20;99.90;;;;;;5091274;28;20089;-71
2024/01/19 08:25:30;;;;;;;7.88;1.20;;;0.20;99.90;;;;;;5091209;28;20039;-70
2024/01/19 08:27:55;;;;;;;9.07;1.38;;;0.50;99.90;;;;;;5091136;28;20051;-70
2024/01/19 08:30:21;;;;;;;6.13;1.50;;;0.50;99.90;;;;;;5091199;28;20043;-71
2024/01/19 08:32:47;;;;;;;9.73;2.15;;;0.20;99.90;;;;;;5091157;28;20457;-70
2024/01/19 08:35:12;;;;;;;5.63;1.42;;;0.40;99.90;;;;;;5107771;28;20043;-70
2024/01/19 08:37:39;;;;;;;10.68;1.85;;;0.30;99.90;;;;;;5111602;28;20035;-71
2024/01/19 08:40:10;;;;;;;6.07;1.95;;;0.40;99.90;;;;;;5111524;28;20043;-70
2024/01/19 08:42:36;;;;;;;7.70;2.20;;;0.00;99.90;;;;;;5111597;28;20104;-70
2024/01/19 08:45:03;;;;;;;8.57;1.60;;;0.50;99.90;;;;;;5093366;28;20073;-71
2024/01/19 08:47:29;;;;;;;7.45;1.30;;;0.10;99.90;;;;;;5111659;28;20402;-71
2024/01/19 08:49:54;;;;;;;6.28;1.58;;;0.20;99.90;;;;;;5111611;28;20040;-70
2024/01/19 08:52:20;;;;;;;5.18;1.25;;;0.60;99.90;;;;;;5111503;28;20518;-70
2024/01/19 08:54:46;;;;;;;3.35;0.98;;;0.40;99.90;;;;;;5111357;28;20028;-70
2024/01/19 08:57:11;;;;;;;5.57;1.10;;;0.60;99.90;;;;;;5111248;28;20490;-69
2024/01/19 08:59:37;;;;;;;3.92;1.45;;;0.60;99.90;;;;;;5115131;28;20410;-70
2024/01/19 09:02:03;;;;;;;2.05;1.23;;;0.70;99.90;;;;;;5115099;28;20042;-70
2024/01/19 09:04:29;;;;;;;8.23;2.53;;;0.70;99.90;;;;;;5115127;28;20054;-70
2024/01/19 09:06:57;;;;;;;4.18;1.25;;;0.70;99.90;;;;;;5114852;28;20039;-70
2024/01/19 09:09:23;;;;;;;5.10;1.60;;;0.80;99.90;;;;;;5114750;28;20122;-72
2024/01/19 09:11:49;;;;;;;7.38;1.80;;;0.80;99.90;;;;;;5115147;28;20123;-70
2024/01/19 09:14:15;;;;;;;10.75;1.95;;;0.50;99.90;;;;;;5096903;28;20044;-70
2024/01/19 09:16:44;;;;;;;7.45;1.30;;;0.90;99.90;;;;;;5114827;28;20031;-72
2024/01/19 09:19:11;;;;;;;7.28;1.63;;;0.80;99.90;;;;;;5114959;28;20430;-70
2024/01/19 09:21:39;;;;;;;6.28;1.27;;;0.60;99.90;;;;;;5096736;28;20044;-70
2024/01/19 09:24:05;;;;;;;6.85;1.48;;;0.60;99.90;;;;;;5114727;28;20059;-72
2024/01/19 09:26:31;;;;;;;4.53;1.67;;;0.70;99.90;;;;;;5096432;28;20049;-70
2024/01/19 09:28:56;;;;;;;5.78;2.25;;;0.90;99.90;;;;;;5114614;28;20058;-70
2024/01/19 09:31:22;;;;;;;6.25;1.55;;;1.00;99.90;;;;;;5114700;28;20043;-69
2024/01/19 09:33:48;;;;;;;5.65;2.15;;;0.70;99.90;;;;;;5114636;28;20071;-70
2024/01/19 09:36:13;;;;;;;6.18;2.00;;;1.10;99.90;;;;;;5114447;28;20052;-70
2024/01/19 09:38:39;;;;;;;8.35;2.10;;;1.00;99.90;;;;;;5114205;28;20405;-70
2024/01/19 09:41:17;;;;;;;5.07;1.33;;;1.10;99.90;;;;;;5114422;28;20031;-70
2024/01/19 09:43:46;;;;;;;8.95;1.80;;;1.10;99.90;;;;;;5114335;28;20485;-70
2024/01/19 09:46:18;;;;;;;5.30;1.50;;;0.90;99.90;;;;;;5114307;28;20039;-70
2024/01/19 09:48:57;;;;;;;5.28;1.95;;;0.90;99.90;;;;;;5114129;28;20042;-72
2024/01/19 09:51:39;;;;;;;7.85;1.67;;;1.00;99.90;;;;;;5114301;28;20043;-70
2024/01/19 09:54:09;;;;;;;8.50;2.00;;;1.20;99.90;;;;;;5112379;28;20503;-70
2024/01/19 09:56:35;;;;;;;8.80;1.85;;;1.20;99.90;;;;;;5113023;28;20040;-71
2024/01/19 09:59:03;;;;;;;6.72;2.60;;;1.20;99.90;;;;;;5108340;28;20043;-69
2024/01/19 10:01:29;;;;;;;7.82;2.17;;;1.20;99.90;;;;;;5108283;28;20436;-70
2024/01/19 10:04:00;;;;;;;3.60;1.10;;;1.10;99.90;;;;;;5110333;28;20063;-69
2024/01/19 10:06:26;;;;;;;10.80;3.25;;;1.10;99.90;;;;;;5105123;28;20024;-69
2024/01/19 10:08:55;;;;;;;15.98;1.98;;;1.10;99.90;;;;;;5093172;28;20094;-70
2024/01/19 10:11:22;;;;;;;6.88;1.63;;;1.10;99.90;;;;;;5102211;28;20040;-70
2024/01/19 10:13:48;;;;;;;7.55;2.05;;;1.10;99.90;;;;;;5113791;28;20040;-70
2024/01/19 10:16:13;;;;;;;8.73;2.80;;;1.10;99.90;;;;;;5113436;28;20038;-70
2024/01/19 10:18:41;;;;;;;5.60;1.65;;;1.20;99.90;;;;;;5113322;28;20043;-70
2024/01/19 10:21:07;;;;;;;11.20;2.22;;;1.40;99.90;;;;;;5095288;28;20031;-69
2024/01/19 10:23:33;;;;;;;6.65;1.35;;;1.30;99.90;;;;;;5078480;28;20068;-72
2024/01/19 10:26:13;;;;;;;11.07;3.10;;;1.40;99.90;;;;;;5113450;28;20039;-70
2024/01/19 10:28:39;;;;;;;4.22;1.60;;;1.30;99.90;;;;;;5094935;28;20122;-71
2024/01/19 10:31:22;;;;;;;8.05;2.38;;;1.40;99.90;;;;;;5113708;28;20094;-70
2024/01/19 10:33:57;;;;;;;8.53;1.90;;;1.50;99.90;;;;;;5113612;28;20425;-70
2024/01/19 10:36:23;;;;;;;13.13;3.03;;;1.40;99.90;;;;;;5095249;28;20606;-71
2024/01/19 10:38:49;;;;;;;6.25;1.50;;;1.70;99.90;;;;;;5113008;28;20042;-70
2024/01/19 10:41:24;;;;;;;9.88;2.05;;;1.40;99.90;;;;;;5113202;28;20556;-70
2024/01/19 10:43:49;;;;;;;11.32;2.58;;;1.70;99.90;;;;;;5113361;28;20035;-71
2024/01/19 10:46:26;;;;;;;7.70;2.75;;;1.60;99.90;;;;;;5113157;28;20135;-70
2024/01/19 10:48:52;;;;;;;10.02;2.22;;;1.70;99.90;;;;;;5112946;28;20032;-70
2024/01/19 10:51:20;;;;;;;9.18;1.85;;;1.50;99.90;;;;;;5112940;28;20072;-70
2024/01/19 10:53:49;;;;;;;11.50;2.40;;;1.70;99.90;;;;;;5113186;28;20054;-70
2024/01/19 10:56:19;;;;;;;6.40;1.58;;;1.70;99.90;;;;;;5112937;28;20040;-71
2024/01/19 10:58:45;;;;;;;4.68;1.80;;;1.80;99.90;;;;;;5112736;28;20119;-70
2024/01/19 11:01:15;;;;;;;7.00;2.33;;;1.90;99.90;;;;;;5112933;28;20067;-70
2024/01/19 11:03:43;;;;;;;7.32;3.10;;;1.60;99.90;;;;;;5112766;28;20491;-70
2024/01/19 11:06:09;;;;;;;7.53;1.83;;;1.80;99.90;;;;;;5076789;28;20035;-70
2024/01/19 11:08:35;;;;;;;5.90;1.55;;;2.00;99.90;;;;;;5111914;28;20042;-71
2024/01/19 11:11:04;;;;;;;12.93;1.98;;;2.00;99.90;;;;;;5108302;28;20064;-71
2024/01/19 11:13:36;;;;;;;5.80;2.15;;;1.90;99.90;;;;;;5111394;28;20118;-71
2024/01/19 11:16:14;;;;;;;5.90;2.65;;;1.80;99.90;;;;;;5109904;28;20058;-71
2024/01/19 11:18:39;;;;;;;9.57;1.60;;;1.90;99.90;;;;;;5091884;28;20439;-70
2024/01/19 11:21:06;;;;;;;12.05;2.67;;;2.10;99.90;;;;;;5091796;28;20036;-71
2024/01/19 11:23:34;;;;;;;14.85;2.22;;;2.00;99.90;;;;;;5092254;28;20126;-71
2024/01/19 11:26:00;;;;;;;6.68;1.73;;;2.10;99.90;;;;;;5074168;28;20047;-71
2024/01/19 11:28:29;;;;;;;6.75;1.92;;;2.00;99.90;;;;;;5073833;28;20054;-71
2024/01/19 11:31:06;;;;;;;9.50;1.92;;;2.00;99.90;;;;;;5092106;28;20048;-71
2024/01/19 11:33:32;;;;;;;8.95;1.85;;;2.20;99.90;;;;;;5073850;28;20048;-71
2024/01/19 11:35:58;;;;;;;8.68;1.75;;;2.10;99.90;;;;;;5090742;28;20550;-71
2024/01/19 11:38:36;;;;;;;8.52;1.98;;;2.30;99.90;;;;;;5091773;28;20040;-71
2024/01/19 11:41:02;;;;;;;8.02;1.70;;;2.20;99.90;;;;;;5091882;28;20036;-71
2024/01/19 11:43:43;;;;;;;7.85;1.85;;;2.40;99.90;;;;;;5073829;28;20032;-71
2024/01/19 11:46:10;;;;;;;9.95;2.15;;;2.40;99.90;;;;;;5091854;28;20377;-71
2024/01/19 11:48:45;;;;;;;10.85;1.90;;;2.30;99.90;;;;;;5091697;28;20123;-71
2024/01/19 11:51:31;;;;;;;5.95;1.85;;;2.30;99.90;;;;;;5073572;28;20488;-71
2024/01/19 11:53:58;;;;;;;4.68;1.75;;;2.30;99.90;;;;;;5091454;28;20043;-71
2024/01/19 11:56:24;;;;;;;10.85;2.38;;;2.50;99.90;;;;;;5091364;28;20474;-70
2024/01/19 11:58:51;;;;;;;7.63;1.65;;;2.40;99.90;;;;;;5091462;28;20032;-70
2024/01/19 12:01:17;;;;;;;10.57;2.22;;;2.60;99.90;;;;;;5073617;28;20458;-71
2024/01/19 12:03:43;;;;;;;8.68;2.10;;;2.60;99.90;;;;;;5091641;28;20040;-71
2024/01/19 12:06:09;;;;;;;9.25;2.22;;;2.60;99.90;;;;;;5073277;28;20044;-71
2024/01/19 12:08:35;;;;;;;4.13;1.45;;;2.60;99.90;;;;;;5091015;28;20063;-71
2024/01/19 12:11:06;;;;;;;6.97;1.80;;;2.50;99.90;;;;;;5073385;28;20043;-71
2024/01/19 12:13:33;;;;;;;12.80;1.90;;;2.70;99.90;;;;;;5073219;28;20040;-71
2024/01/19 12:16:00;;;;;;;14.52;2.45;;;2.70;99.90;;;;;;5073282;28;20066;-71
2024/01/19 12:18:27;;;;;;;11.50;1.85;;;2.70;99.90;;;;;;5091070;28;20032;-71
2024/01/19 12:20:56;;;;;;;9.65;2.67;;;2.80;99.90;;;;;;5091328;28;20036;-72
2024/01/19 12:23:23;;;;;;;14.65;2.42;;;2.70;99.90;;;;;;5091535;28;20040;-71
2024/01/19 12:25:58;;;;;;;7.18;1.90;;;2.70;99.90;;;;;;5090012;28;20135;-71
2024/01/19 12:28:24;;;;;;;12.80;2.35;;;2.80;99.90;;;;;;5089809;28;20040;-70
2024/01/19 12:30:52;;;;;;;9.52;2.72;;;2.90;99.90;;;;;;5089950;28;20044;-71
2024/01/19 12:33:21;;;;;;;4.93;1.40;;;2.80;99.90;;;;;;5092941;28;20040;-70
2024/01/19 12:35:47;;;;;;;11.93;3.90;;;3.00;99.90;;;;;;5110278;28;20028;-70
2024/01/19 12:38:15;;;;;;;6.45;1.50;;;3.00;99.90;;;;;;5115155;28;20046;-71
2024/01/19 12:40:41;;;;;;;11.85;1.70;;;3.00;99.90;;;;;;5115359;28;20501;-71
2024/01/19 12:43:07;;;;;;;3.55;1.17;;;3.00;99.90;;;;;;5115552;28;20096;-71
2024/01/19 12:45:34;;;;;;;10.18;1.30;;;3.10;99.90;;;;;;5115495;28;20051;-71
2024/01/19 12:48:00;;;;;;;12.20;1.70;;;3.10;99.90;;;;;;5112988;28;20040;-71
2024/01/19 12:50:30;;;;;;;6.43;1.80;;;3.20;99.90;;;;;;5114881;28;20040;-71
2024/01/19 12:52:56;;;;;;;5.78;1.60;;;3.10;99.90;;;;;;5079843;28;20092;-71